createdAt,value
2017-05-11T04:40:18.890Z,942.74
2017-05-11T04:41:15.318Z,942.75
2017-05-11T04:42:15.512Z,942.72
2017-05-11T04:43:15.875Z,942.75
2017-05-11T04:44:21.253Z,942.74
2017-05-11T04:45:16.606Z,942.73
2017-05-11T04:46:16.237Z,942.72
2017-05-11T04:47:17.358Z,942.71
2017-05-11T04:48:15.779Z,942.74
2017-05-11T04:49:14.593Z,942.73
2017-05-11T04:50:16.532Z,942.74
2017-05-11T04:51:15.275Z,942.73
2017-05-11T04:52:17.993Z,942.74
2017-05-11T04:53:16.565Z,942.75
2017-05-11T04:54:14.962Z,942.77
2017-05-11T04:55:15.531Z,942.78
2017-05-11T04:56:17.587Z,942.78
2017-05-11T04:57:18.117Z,942.70
2017-05-11T04:58:15.871Z,942.74
2017-05-11T04:59:15.218Z,942.73
2017-05-11T05:00:16.709Z,942.74
2017-05-11T05:01:15.370Z,942.79
2017-05-11T05:02:18.386Z,942.72
2017-05-11T05:03:15.651Z,942.70
2017-05-11T05:04:15.721Z,942.71
2017-05-11T05:05:16.341Z,942.69
2017-05-11T05:06:15.403Z,942.65
2017-05-11T05:07:15.624Z,942.63
2017-05-11T05:08:15.415Z,942.64
2017-05-11T05:09:14.975Z,942.62
2017-05-11T05:10:15.124Z,942.66
2017-05-11T05:11:16.131Z,942.65
2017-05-11T05:12:15.530Z,942.61
2017-05-11T05:13:15.421Z,942.63
2017-05-11T05:14:16.753Z,942.63
2017-05-11T05:15:14.860Z,942.61
2017-05-11T05:16:15.148Z,942.61
2017-05-11T05:17:16.934Z,942.62
2017-05-11T05:18:15.183Z,942.61
2017-05-11T05:19:14.720Z,942.60
2017-05-11T05:20:14.286Z,942.64
2017-05-11T05:21:14.638Z,942.58
2017-05-11T05:22:15.083Z,942.56
2017-05-11T05:23:16.769Z,942.57
2017-05-11T05:24:17.215Z,942.55
2017-05-11T05:25:16.773Z,942.59
2017-05-11T05:26:18.047Z,942.55
2017-05-11T05:27:15.086Z,942.55
2017-05-11T05:28:18.484Z,942.59
2017-05-11T05:29:16.770Z,942.58
2017-05-11T05:30:15.786Z,942.59
2017-05-11T05:31:14.678Z,942.58
2017-05-11T05:32:15.699Z,942.60
2017-05-11T05:33:15.146Z,942.59
2017-05-11T05:34:17.460Z,942.66
2017-05-11T05:35:16.132Z,942.74
2017-05-11T05:36:16.031Z,942.67
2017-05-11T05:37:16.723Z,942.64
2017-05-11T05:38:16.430Z,942.70
2017-05-11T05:39:17.014Z,942.71
2017-05-11T05:40:15.211Z,942.71
2017-05-11T05:41:15.113Z,942.71
2017-05-11T05:42:14.770Z,942.67
2017-05-11T05:43:18.391Z,942.65
2017-05-11T05:44:18.458Z,942.65
2017-05-11T05:45:15.945Z,942.65
2017-05-11T05:46:14.826Z,942.60
2017-05-11T05:47:16.916Z,942.59
2017-05-11T05:48:15.195Z,942.60
2017-05-11T05:49:15.610Z,942.64
2017-05-11T05:50:16.637Z,942.63
2017-05-11T05:51:16.266Z,942.63
2017-05-11T05:52:15.797Z,942.60
2017-05-11T05:53:15.646Z,942.62
2017-05-11T05:54:14.091Z,942.62
2017-05-11T05:55:16.322Z,942.57
2017-05-11T05:56:15.008Z,942.59
2017-05-11T05:57:16.749Z,942.57
2017-05-11T05:58:14.925Z,942.53
2017-05-11T05:59:15.935Z,942.53
2017-05-11T06:00:15.559Z,942.52
2017-05-11T06:01:15.888Z,942.54
2017-05-11T06:02:15.126Z,942.51
2017-05-11T06:03:15.196Z,942.49
2017-05-11T06:04:16.358Z,942.51
2017-05-11T06:05:16.166Z,942.50
2017-05-11T06:06:18.234Z,942.52
2017-05-11T06:07:15.626Z,942.48
2017-05-11T06:08:18.009Z,942.49
2017-05-11T06:09:15.057Z,942.49
2017-05-11T06:10:17.087Z,942.57
2017-05-11T06:11:15.040Z,942.47
2017-05-11T06:12:14.783Z,942.45
2017-05-11T06:13:15.422Z,942.39
2017-05-11T06:14:16.464Z,942.39
2017-05-11T06:15:24.406Z,942.41
2017-05-11T06:16:17.525Z,942.39
2017-05-11T06:17:15.330Z,942.44
2017-05-11T06:18:16.388Z,942.39
2017-05-11T06:19:15.998Z,942.43
2017-05-11T06:20:15.404Z,942.42
2017-05-11T06:21:15.473Z,942.36
2017-05-11T06:22:14.627Z,942.44
2017-05-11T06:23:17.462Z,942.40
2017-05-11T06:24:16.119Z,942.40
2017-05-11T06:25:17.548Z,942.44
2017-05-11T06:26:15.485Z,942.41
2017-05-11T06:27:15.387Z,942.39
2017-05-11T06:28:16.040Z,942.44
2017-05-11T06:29:16.129Z,942.45
2017-05-11T06:30:14.648Z,942.43
2017-05-11T06:31:18.065Z,942.40
2017-05-11T06:32:16.633Z,942.40
2017-05-11T06:33:14.839Z,942.41
2017-05-11T06:34:15.898Z,942.37
2017-05-11T06:35:15.623Z,942.40
2017-05-11T06:36:15.312Z,942.38
2017-05-11T06:37:15.121Z,942.39
2017-05-11T06:38:14.959Z,942.37
2017-05-11T06:39:15.067Z,942.37
2017-05-11T06:40:17.113Z,942.39
2017-05-11T06:41:15.600Z,942.42
2017-05-11T06:42:16.484Z,942.41
2017-05-11T06:43:15.343Z,942.42
2017-05-11T06:44:14.637Z,942.37
2017-05-11T06:45:14.578Z,942.40
2017-05-11T06:46:20.784Z,942.39
2017-05-11T06:47:16.140Z,942.34
2017-05-11T06:48:15.269Z,942.37
2017-05-11T06:49:15.366Z,942.34
2017-05-11T06:50:15.967Z,942.33
2017-05-11T06:51:20.045Z,942.36
2017-05-11T06:52:14.914Z,942.36
2017-05-11T06:53:16.076Z,942.34
2017-05-11T06:54:15.197Z,942.32
2017-05-11T06:55:15.218Z,942.32
2017-05-11T06:56:15.106Z,942.33
2017-05-11T06:57:16.521Z,942.29
2017-05-11T06:58:15.017Z,942.28
2017-05-11T06:59:16.850Z,942.29
2017-05-11T07:00:15.513Z,942.29
2017-05-11T07:01:14.886Z,942.25
2017-05-11T07:02:15.739Z,942.28
2017-05-11T07:03:16.606Z,942.28
2017-05-11T07:04:14.818Z,942.30
2017-05-11T07:05:15.587Z,942.29
2017-05-11T07:06:14.718Z,942.30
2017-05-11T07:07:15.759Z,942.28
2017-05-11T07:08:15.072Z,942.28
2017-05-11T07:09:17.878Z,942.29
2017-05-11T07:10:16.358Z,942.27
2017-05-11T07:11:16.211Z,942.30
2017-05-11T07:12:17.932Z,942.30
2017-05-11T07:13:16.181Z,942.29
2017-05-11T07:14:15.053Z,942.30
2017-05-11T07:15:16.642Z,942.26
2017-05-11T07:16:15.198Z,942.27
2017-05-11T07:17:15.691Z,942.26
2017-05-11T07:18:15.172Z,942.31
2017-05-11T07:19:15.504Z,942.24
2017-05-11T07:20:16.054Z,942.25
2017-05-11T07:21:15.580Z,942.28
2017-05-11T07:22:16.262Z,942.23
2017-05-11T07:23:15.569Z,942.25
2017-05-11T07:24:18.153Z,942.22
2017-05-11T07:25:15.176Z,942.23
2017-05-11T07:26:16.186Z,942.22
2017-05-11T07:27:18.015Z,942.18
2017-05-11T07:28:15.877Z,942.19
2017-05-11T07:29:15.389Z,942.18
2017-05-11T07:30:15.499Z,942.18
2017-05-11T07:31:16.167Z,942.19
2017-05-11T07:32:15.412Z,942.16
2017-05-11T07:33:15.074Z,942.12
2017-05-11T07:34:17.347Z,942.15
2017-05-11T07:35:17.141Z,942.12
2017-05-11T07:36:15.165Z,942.10
2017-05-11T07:37:19.865Z,942.11
2017-05-11T07:38:15.041Z,942.10
2017-05-11T07:39:14.075Z,942.12
2017-05-11T07:40:15.514Z,942.09
2017-05-11T07:41:15.883Z,942.13
2017-05-11T07:42:17.116Z,942.09
2017-05-11T07:43:18.767Z,942.10
2017-05-11T07:44:15.593Z,942.08
2017-05-11T07:45:14.402Z,942.08
2017-05-11T07:46:17.817Z,942.10
2017-05-11T07:47:15.869Z,942.09
2017-05-11T07:48:14.934Z,942.06
2017-05-11T07:49:15.659Z,942.05
2017-05-11T07:50:15.477Z,942.09
2017-05-11T07:51:15.775Z,942.07
2017-05-11T07:52:14.926Z,942.08
2017-05-11T07:53:16.332Z,942.11
2017-05-11T07:54:15.549Z,942.08
2017-05-11T07:55:17.016Z,942.06
2017-05-11T07:56:15.668Z,942.07
2017-05-11T07:57:16.595Z,942.09
2017-05-11T07:58:18.830Z,942.07
2017-05-11T07:59:17.717Z,942.04
2017-05-11T08:00:19.920Z,942.03
2017-05-11T08:01:16.211Z,942.05
2017-05-11T08:02:15.330Z,942.00
2017-05-11T08:03:16.266Z,942.01
2017-05-11T08:04:22.176Z,941.95
2017-05-11T08:05:16.200Z,941.95
2017-05-11T08:06:16.191Z,941.92
2017-05-11T08:07:15.861Z,941.96
2017-05-11T08:08:15.018Z,941.97
2017-05-11T08:09:16.708Z,941.96
2017-05-11T08:10:16.233Z,941.99
2017-05-11T08:11:15.397Z,941.97
2017-05-11T08:12:17.752Z,941.93
2017-05-11T08:13:15.622Z,941.95
2017-05-11T08:14:15.389Z,941.94
2017-05-11T08:15:16.793Z,941.88
2017-05-11T08:16:15.519Z,941.87
2017-05-11T08:17:16.110Z,941.86
2017-05-11T08:18:15.731Z,941.88
2017-05-11T08:19:16.558Z,941.87
2017-05-11T08:20:17.325Z,941.84
2017-05-11T08:21:17.722Z,941.82
2017-05-11T08:22:16.652Z,941.81
2017-05-11T08:23:15.683Z,941.81
2017-05-11T08:24:16.044Z,941.81
2017-05-11T08:25:15.802Z,941.80
2017-05-11T08:26:14.132Z,941.83
2017-05-11T08:27:17.812Z,941.81
2017-05-11T08:28:15.457Z,941.80
2017-05-11T08:29:17.750Z,941.86
2017-05-11T08:30:15.888Z,941.79
2017-05-11T08:31:15.724Z,941.79
2017-05-11T08:32:16.553Z,941.82
2017-05-11T08:33:15.137Z,941.79
2017-05-11T08:34:14.163Z,941.78
2017-05-11T08:35:14.788Z,941.73
2017-05-11T08:36:15.655Z,941.81
2017-05-11T08:37:15.723Z,941.77
2017-05-11T08:38:19.805Z,941.73
2017-05-11T08:39:16.664Z,941.76
2017-05-11T08:40:18.435Z,941.76
2017-05-11T08:41:16.119Z,941.70
2017-05-11T08:42:16.937Z,941.66
2017-05-11T08:43:16.308Z,941.64
2017-05-11T08:44:15.232Z,941.64
2017-05-11T08:45:19.868Z,941.62
2017-05-11T08:46:15.036Z,941.67
2017-05-11T08:47:15.358Z,941.57
2017-05-11T08:48:15.234Z,941.64
2017-05-11T08:49:18.338Z,941.63
2017-05-11T08:50:16.721Z,941.64
2017-05-11T08:51:16.249Z,941.66
2017-05-11T08:52:15.569Z,941.66
2017-05-11T08:53:15.642Z,941.66
2017-05-11T08:54:14.111Z,941.64
2017-05-11T08:55:17.560Z,941.60
2017-05-11T08:56:15.031Z,941.54
2017-05-11T08:57:16.938Z,941.55
2017-05-11T08:58:16.379Z,941.56
2017-05-11T08:59:15.623Z,941.57
2017-05-11T09:00:15.779Z,941.56
2017-05-11T09:01:15.683Z,941.54
2017-05-11T09:02:15.331Z,941.55
2017-05-11T09:03:17.176Z,941.55
2017-05-11T09:04:15.153Z,941.56
2017-05-11T09:05:15.257Z,941.50
2017-05-11T09:06:14.986Z,941.47
2017-05-11T09:07:15.405Z,941.49
2017-05-11T09:08:16.160Z,941.53
2017-05-11T09:09:14.606Z,941.56
2017-05-11T09:10:15.202Z,941.58
2017-05-11T09:11:18.280Z,941.53
2017-05-11T09:12:17.029Z,941.45
2017-05-11T09:13:16.767Z,941.43
2017-05-11T09:14:15.515Z,941.37
2017-05-11T09:15:16.158Z,941.35
2017-05-11T09:16:16.245Z,941.34
2017-05-11T09:17:19.354Z,941.27
2017-05-11T09:18:16.683Z,941.27
2017-05-11T09:19:16.724Z,941.29
2017-05-11T09:20:17.013Z,941.27
2017-05-11T09:21:15.811Z,941.27
2017-05-11T09:22:17.296Z,941.26
2017-05-11T09:23:15.257Z,941.27
2017-05-11T09:24:16.154Z,941.22
2017-05-11T09:25:14.954Z,941.17
2017-05-11T09:26:15.525Z,941.20
2017-05-11T09:27:16.281Z,941.26
2017-05-11T09:28:15.966Z,941.25
2017-05-11T09:29:16.142Z,941.14
2017-05-11T09:30:23.308Z,941.18
2017-05-11T09:31:15.775Z,941.21
2017-05-11T09:32:14.276Z,941.17
2017-05-11T09:33:15.205Z,941.14
2017-05-11T09:34:15.595Z,941.13
2017-05-11T09:35:15.204Z,941.20
2017-05-11T09:36:15.751Z,941.10
2017-05-11T09:37:14.691Z,941.09
2017-05-11T09:38:17.832Z,941.16
2017-05-11T09:39:15.345Z,941.13
2017-05-11T09:40:18.265Z,941.12
2017-05-11T09:41:17.476Z,941.11
2017-05-11T09:42:15.402Z,941.12
2017-05-11T09:43:14.916Z,941.13
2017-05-11T09:44:16.237Z,941.13
2017-05-11T09:45:16.393Z,941.13
2017-05-11T09:46:15.808Z,941.11
2017-05-11T09:47:18.252Z,941.12
2017-05-11T09:48:17.082Z,941.09
2017-05-11T09:49:16.957Z,941.13
2017-05-11T09:50:15.314Z,941.06
2017-05-11T09:51:16.280Z,941.16
2017-05-11T09:52:16.513Z,941.07
2017-05-11T09:53:17.733Z,941.12
2017-05-11T09:54:14.475Z,941.11
2017-05-11T09:55:16.947Z,941.15
2017-05-11T09:56:16.426Z,941.10
2017-05-11T09:57:16.181Z,941.15
2017-05-11T09:58:15.436Z,941.18
2017-05-11T09:59:15.680Z,941.12
2017-05-11T10:00:14.930Z,941.15
2017-05-11T10:01:15.068Z,941.13
2017-05-11T10:02:16.267Z,941.06
2017-05-11T10:03:15.981Z,941.02
2017-05-11T10:04:15.275Z,940.99
2017-05-11T10:05:15.090Z,941.00
2017-05-11T10:06:17.542Z,940.93
2017-05-11T10:07:16.047Z,940.92
2017-05-11T10:08:15.626Z,940.97
2017-05-11T10:09:16.058Z,940.91
2017-05-11T10:10:16.927Z,940.92
2017-05-11T10:11:15.049Z,940.87
2017-05-11T10:12:16.044Z,940.84
2017-05-11T10:13:15.616Z,940.80
2017-05-11T10:14:15.540Z,940.83
2017-05-11T10:15:17.371Z,940.79
2017-05-11T10:16:15.523Z,940.72
2017-05-11T10:17:17.232Z,940.72
2017-05-11T10:18:14.719Z,940.75
2017-05-11T10:19:19.305Z,940.74
2017-05-11T10:20:16.033Z,940.69
2017-05-11T10:21:15.516Z,940.67
2017-05-11T10:22:17.334Z,940.65
2017-05-11T10:23:16.362Z,940.66
2017-05-11T10:24:15.475Z,940.64
2017-05-11T10:25:15.216Z,940.60
2017-05-11T10:26:15.640Z,940.62
2017-05-11T10:27:15.688Z,940.58
2017-05-11T10:28:15.033Z,940.60
2017-05-11T10:29:15.236Z,940.59
2017-05-11T10:30:15.681Z,940.59
2017-05-11T10:31:16.975Z,940.54
2017-05-11T10:32:14.782Z,940.56
2017-05-11T10:33:15.124Z,940.57
2017-05-11T10:34:15.947Z,940.54
2017-05-11T10:35:16.456Z,940.55
2017-05-11T10:36:16.068Z,940.52
2017-05-11T10:37:14.995Z,940.49
2017-05-11T10:38:16.269Z,940.50
2017-05-11T10:39:17.596Z,940.51
2017-05-11T10:40:16.130Z,940.45
2017-05-11T10:41:22.211Z,940.46
2017-05-11T10:42:15.720Z,940.42
2017-05-11T10:43:17.222Z,940.45
2017-05-11T10:44:17.947Z,940.43
2017-05-11T10:45:15.647Z,940.46
2017-05-11T10:46:15.294Z,940.43
2017-05-11T10:47:17.865Z,940.44
2017-05-11T10:48:15.041Z,940.48
2017-05-11T10:49:19.484Z,940.43
2017-05-11T10:50:18.109Z,940.45
2017-05-11T10:51:15.828Z,940.40
2017-05-11T10:52:15.454Z,940.40
2017-05-11T10:53:18.557Z,940.42
2017-05-11T10:54:16.230Z,940.39
2017-05-11T10:55:15.476Z,940.43
2017-05-11T10:56:15.344Z,940.41
2017-05-11T10:57:15.054Z,940.34
2017-05-11T10:58:15.245Z,940.31
2017-05-11T10:59:17.078Z,940.32
2017-05-11T11:00:16.400Z,940.21
2017-05-11T11:01:15.698Z,940.25
2017-05-11T11:02:16.784Z,940.22
2017-05-11T11:03:15.182Z,940.22
2017-05-11T11:04:15.578Z,940.17
2017-05-11T11:05:15.760Z,940.17
2017-05-11T11:06:15.671Z,940.18
2017-05-11T11:07:15.366Z,940.18
2017-05-11T11:08:16.290Z,940.16
2017-05-11T11:09:15.012Z,940.16
2017-05-11T11:10:17.172Z,940.14
2017-05-11T11:11:16.933Z,940.14
2017-05-11T11:12:16.082Z,940.07
2017-05-11T11:13:17.727Z,940.08
2017-05-11T11:14:19.099Z,940.04
2017-05-11T11:15:15.509Z,939.99
2017-05-11T11:16:15.594Z,939.97
2017-05-11T11:17:14.976Z,940.04
2017-05-11T11:18:15.095Z,940.00
2017-05-11T11:19:14.403Z,939.97
2017-05-11T11:20:14.688Z,939.98
2017-05-11T11:21:13.911Z,939.98
2017-05-11T11:22:15.213Z,939.98
2017-05-11T11:23:14.308Z,939.92
2017-05-11T11:24:14.749Z,939.87
2017-05-11T11:25:15.216Z,939.88
2017-05-11T11:26:14.727Z,939.89
2017-05-11T11:27:14.561Z,939.85
2017-05-11T11:28:15.720Z,939.78
2017-05-11T11:29:14.375Z,939.82
2017-05-11T11:30:23.389Z,939.78
2017-05-11T11:31:14.481Z,939.80
2017-05-11T11:32:16.221Z,939.75
2017-05-11T11:33:14.879Z,939.85
2017-05-11T11:34:14.306Z,939.80
2017-05-11T11:35:15.326Z,939.73
2017-05-11T11:36:14.967Z,939.68
2017-05-11T11:37:14.343Z,939.65
2017-05-11T11:38:14.764Z,939.68
2017-05-11T11:39:14.009Z,939.67
2017-05-11T11:40:14.147Z,939.69
2017-05-11T11:41:17.027Z,939.68
2017-05-11T11:42:14.163Z,939.69
2017-05-11T11:43:14.019Z,939.65
2017-05-11T11:44:14.511Z,939.64
2017-05-11T11:45:15.738Z,939.63
2017-05-11T11:46:14.480Z,939.63
2017-05-11T11:47:14.655Z,939.60
2017-05-11T11:48:15.551Z,939.57
2017-05-11T11:49:15.207Z,939.58
2017-05-11T11:50:15.211Z,939.65
2017-05-11T11:51:14.206Z,939.61
2017-05-11T11:52:14.519Z,939.60
2017-05-11T11:53:14.739Z,939.60
2017-05-11T11:54:13.987Z,939.59
2017-05-11T11:55:11.089Z,939.59
2017-05-11T11:56:15.592Z,939.57
2017-05-11T11:57:12.219Z,939.61
2017-05-11T11:58:14.888Z,939.58
2017-05-11T11:59:15.322Z,939.57
2017-05-11T12:00:11.856Z,939.58
2017-05-11T12:01:15.251Z,939.58
2017-05-11T12:02:15.274Z,939.61
2017-05-11T12:03:12.728Z,939.58
2017-05-11T12:04:15.776Z,939.58
2017-05-11T12:05:15.026Z,939.56
2017-05-11T12:06:15.315Z,939.53
2017-05-11T12:07:15.710Z,939.54
2017-05-11T12:08:15.846Z,939.49
2017-05-11T12:09:16.732Z,939.50
2017-05-11T12:10:15.545Z,939.52
2017-05-11T12:11:16.060Z,939.54
2017-05-11T12:12:15.477Z,939.49
2017-05-11T12:13:15.843Z,939.49
2017-05-11T12:14:14.962Z,939.49
2017-05-11T12:15:20.784Z,939.42
2017-05-11T12:16:15.351Z,939.44
2017-05-11T12:17:15.517Z,939.39
2017-05-11T12:18:15.582Z,939.46
2017-05-11T12:19:15.578Z,939.42
2017-05-11T12:20:15.613Z,939.41
2017-05-11T12:21:15.903Z,939.42
2017-05-11T12:22:14.723Z,939.40
2017-05-11T12:23:14.885Z,939.36
2017-05-11T12:24:14.922Z,939.32
2017-05-11T12:25:15.823Z,939.38
2017-05-11T12:26:14.702Z,939.31
2017-05-11T12:27:15.761Z,939.26
2017-05-11T12:28:14.789Z,939.30
2017-05-11T12:29:14.850Z,939.27
2017-05-11T12:30:15.078Z,939.24
2017-05-11T12:31:15.857Z,939.20
2017-05-11T12:32:16.087Z,939.19
2017-05-11T12:33:16.612Z,939.20
2017-05-11T12:34:15.580Z,939.21
2017-05-11T12:35:15.837Z,939.20
2017-05-11T12:36:15.376Z,939.20
2017-05-11T12:37:15.804Z,939.23
2017-05-11T12:38:14.941Z,939.22
2017-05-11T12:39:15.035Z,939.17
2017-05-11T12:40:15.000Z,939.11
2017-05-11T12:41:15.249Z,939.10
2017-05-11T12:42:15.143Z,939.10
2017-05-11T12:43:13.160Z,939.05
2017-05-11T12:44:15.389Z,939.04
2017-05-11T12:45:16.277Z,939.08
2017-05-11T12:46:15.256Z,939.03
2017-05-11T12:47:15.536Z,939.02
2017-05-11T12:48:14.975Z,939.03
2017-05-11T12:49:15.034Z,939.01
2017-05-11T12:50:15.956Z,938.96
2017-05-11T12:51:16.135Z,938.98
2017-05-11T12:52:14.763Z,938.96
2017-05-11T12:53:14.951Z,938.94
2017-05-11T12:54:15.163Z,938.90
2017-05-11T12:55:11.833Z,938.92
2017-05-11T12:56:15.845Z,938.96
2017-05-11T12:57:15.400Z,939.04
2017-05-11T12:58:15.597Z,938.99
2017-05-11T12:59:16.083Z,939.02
2017-05-11T13:00:15.139Z,939.00
2017-05-11T13:01:15.602Z,938.95
2017-05-11T13:02:15.428Z,938.93
2017-05-11T13:03:15.346Z,938.95
2017-05-11T13:04:15.257Z,938.89
2017-05-11T13:05:15.766Z,938.87
2017-05-11T13:06:15.244Z,938.88
2017-05-11T13:07:15.315Z,938.82
2017-05-11T13:08:17.026Z,938.81
2017-05-11T13:09:14.957Z,938.78
2017-05-11T13:10:15.879Z,938.79
2017-05-11T13:11:15.165Z,938.78
2017-05-11T13:12:15.657Z,938.78
2017-05-11T13:13:14.437Z,938.80
2017-05-11T13:14:16.196Z,938.81
2017-05-11T13:15:15.391Z,938.77
2017-05-11T13:16:16.414Z,938.75
2017-05-11T13:17:15.266Z,938.73
2017-05-11T13:18:16.080Z,938.73
2017-05-11T13:19:15.103Z,938.70
2017-05-11T13:20:16.130Z,938.69
2017-05-11T13:21:15.415Z,938.65
2017-05-11T13:22:15.322Z,938.68
2017-05-11T13:23:15.276Z,938.75
2017-05-11T13:24:16.056Z,938.69
2017-05-11T13:25:16.074Z,938.75
2017-05-11T13:26:15.073Z,938.72
2017-05-11T13:27:14.926Z,938.68
2017-05-11T13:28:15.347Z,938.66
2017-05-11T13:29:12.920Z,938.63
2017-05-11T13:30:15.403Z,938.66
2017-05-11T13:31:15.180Z,938.65
2017-05-11T13:32:12.912Z,938.63
2017-05-11T13:33:14.837Z,938.59
2017-05-11T13:34:14.871Z,938.59
2017-05-11T13:35:14.895Z,938.60
2017-05-11T13:36:15.003Z,938.53
2017-05-11T13:37:14.994Z,938.50
2017-05-11T13:38:15.484Z,938.50
2017-05-11T13:39:15.377Z,938.48
2017-05-11T13:40:15.363Z,938.49
2017-05-11T13:41:15.488Z,938.43
2017-05-11T13:42:16.200Z,938.45
2017-05-11T13:43:15.133Z,938.48
2017-05-11T13:44:15.173Z,938.43
2017-05-11T13:45:15.057Z,938.40
2017-05-11T13:46:15.479Z,938.40
2017-05-11T13:47:15.353Z,938.35
2017-05-11T13:48:15.472Z,938.35
2017-05-11T13:49:15.852Z,938.38
2017-05-11T13:50:15.158Z,938.33
2017-05-11T13:51:15.146Z,938.32
2017-05-11T13:52:15.747Z,938.34
2017-05-11T13:53:14.662Z,938.34
2017-05-11T13:54:15.163Z,938.32
2017-05-11T13:55:15.246Z,938.29
2017-05-11T13:56:15.381Z,938.29
2017-05-11T13:57:15.334Z,938.33
2017-05-11T13:58:15.632Z,938.24
2017-05-11T13:59:14.710Z,938.21
2017-05-11T14:00:14.877Z,938.17
2017-05-11T14:01:15.366Z,938.24
2017-05-11T14:02:16.551Z,938.26
2017-05-11T14:03:15.537Z,938.27
2017-05-11T14:04:15.472Z,938.32
2017-05-11T14:05:17.019Z,938.24
2017-05-11T14:06:15.202Z,938.27
2017-05-11T14:07:15.877Z,938.18
2017-05-11T14:08:15.110Z,938.23
2017-05-11T14:09:17.473Z,938.24
2017-05-11T14:10:16.406Z,938.23
2017-05-11T14:11:12.318Z,938.24
2017-05-11T14:12:15.306Z,938.22
2017-05-11T14:13:11.698Z,938.20
2017-05-11T14:14:15.710Z,938.21
2017-05-11T14:15:15.493Z,938.25
2017-05-11T14:16:15.733Z,938.22
2017-05-11T14:17:15.422Z,938.18
2017-05-11T14:18:15.411Z,938.14
2017-05-11T14:19:16.365Z,938.12
2017-05-11T14:20:16.067Z,938.14
2017-05-11T14:21:15.798Z,938.13
2017-05-11T14:22:14.686Z,938.11
2017-05-11T14:23:17.772Z,938.16
2017-05-11T14:24:14.675Z,938.11
2017-05-11T14:25:14.888Z,938.07
2017-05-11T14:26:14.778Z,938.04
2017-05-11T14:27:14.792Z,938.07
2017-05-11T14:28:14.287Z,938.05
2017-05-11T14:29:12.620Z,938.03
2017-05-11T14:30:11.318Z,938.05
2017-05-11T14:31:15.574Z,937.99
2017-05-11T14:32:15.982Z,938.00
2017-05-11T14:33:15.529Z,938.00
2017-05-11T14:34:15.531Z,938.02
2017-05-11T14:35:21.427Z,938.00
2017-05-11T14:36:15.550Z,938.02
2017-05-11T14:37:15.515Z,937.98
2017-05-11T14:38:15.452Z,937.95
2017-05-11T14:39:15.635Z,937.92
2017-05-11T14:40:15.767Z,937.94
2017-05-11T14:41:15.442Z,937.85
2017-05-11T14:42:16.125Z,937.84
2017-05-11T14:43:15.361Z,937.87
2017-05-11T14:44:17.276Z,937.88
2017-05-11T14:45:15.572Z,937.83
2017-05-11T14:46:15.749Z,937.81
2017-05-11T14:47:15.373Z,937.77
2017-05-11T14:48:15.499Z,937.78
2017-05-11T14:49:15.510Z,937.80
2017-05-11T14:50:17.340Z,937.75
2017-05-11T14:51:15.970Z,937.77
2017-05-11T14:52:14.777Z,937.73
2017-05-11T14:53:14.873Z,937.80
2017-05-11T14:54:15.619Z,937.80
2017-05-11T14:55:11.228Z,937.76
2017-05-11T14:56:15.927Z,937.76
2017-05-11T14:57:15.887Z,937.78
2017-05-11T14:58:15.432Z,937.76
2017-05-11T14:59:16.340Z,937.74
2017-05-11T15:00:15.191Z,937.77
2017-05-11T15:01:15.210Z,937.70
2017-05-11T15:02:16.053Z,937.76
2017-05-11T15:03:15.172Z,937.71
2017-05-11T15:04:15.406Z,937.67
2017-05-11T15:05:16.263Z,937.69
2017-05-11T15:06:16.272Z,937.68
2017-05-11T15:07:16.137Z,937.70
2017-05-11T15:08:16.767Z,937.72
2017-05-11T15:09:14.879Z,937.72
2017-05-11T15:10:15.941Z,937.76
2017-05-11T15:11:15.700Z,937.77
2017-05-11T15:12:15.019Z,937.78
2017-05-11T15:13:15.168Z,937.77
2017-05-11T15:14:15.753Z,937.79
2017-05-11T15:15:15.269Z,937.84
2017-05-11T15:16:15.519Z,937.85
2017-05-11T15:17:16.858Z,937.87
2017-05-11T15:18:15.157Z,937.88
2017-05-11T15:19:15.102Z,937.85
2017-05-11T15:20:15.203Z,937.83
2017-05-11T15:21:17.145Z,937.83
2017-05-11T15:22:15.709Z,937.87
2017-05-11T15:23:14.971Z,937.85
2017-05-11T15:24:16.337Z,937.83
2017-05-11T15:25:15.294Z,937.80
2017-05-11T15:26:15.481Z,937.81
2017-05-11T15:27:13.128Z,937.86
2017-05-11T15:28:15.444Z,937.83
2017-05-11T15:29:15.565Z,937.87
2017-05-11T15:30:15.693Z,937.88
2017-05-11T15:31:14.739Z,937.86
2017-05-11T15:32:14.914Z,937.89
2017-05-11T15:33:14.718Z,937.84
2017-05-11T15:34:15.571Z,937.83
2017-05-11T15:35:15.666Z,937.80
2017-05-11T15:36:15.741Z,937.87
2017-05-11T15:37:14.962Z,937.80
2017-05-11T15:38:15.091Z,937.77
2017-05-11T15:39:15.138Z,937.77
2017-05-11T15:40:15.887Z,937.74
2017-05-11T15:41:14.997Z,937.71
2017-05-11T15:42:15.235Z,937.73
2017-05-11T15:43:15.776Z,937.74
2017-05-11T15:44:14.971Z,937.72
2017-05-11T15:45:15.314Z,937.74
2017-05-11T15:46:15.483Z,937.79
2017-05-11T15:47:13.296Z,937.75
2017-05-11T15:48:10.485Z,937.77
2017-05-11T15:49:15.895Z,937.70
2017-05-11T15:50:16.237Z,937.69
2017-05-11T15:51:15.476Z,937.74
2017-05-11T15:52:15.827Z,937.75
2017-05-11T15:53:15.438Z,937.75
2017-05-11T15:54:16.007Z,937.74
2017-05-11T15:55:15.382Z,937.78
2017-05-11T15:56:15.259Z,937.86
2017-05-11T15:57:15.097Z,937.72
2017-05-11T15:58:16.147Z,937.83
2017-05-11T15:59:15.282Z,937.84
2017-05-11T16:00:15.510Z,937.81
2017-05-11T16:01:16.092Z,937.79
2017-05-11T16:02:15.293Z,937.89
2017-05-11T16:03:15.441Z,937.81
2017-05-11T16:04:15.495Z,937.85
2017-05-11T16:05:15.295Z,937.81
2017-05-11T16:06:15.668Z,937.78
2017-05-11T16:07:15.839Z,937.75
2017-05-11T16:08:15.583Z,937.74
2017-05-11T16:09:17.141Z,937.70
2017-05-11T16:10:16.375Z,937.67
2017-05-11T16:11:16.012Z,937.71
2017-05-11T16:12:15.423Z,937.71
2017-05-11T16:13:16.773Z,937.69
2017-05-11T16:14:14.959Z,937.69
2017-05-11T16:15:16.562Z,937.68
2017-05-11T16:16:16.214Z,937.69
2017-05-11T16:17:15.678Z,937.71
2017-05-11T16:18:14.876Z,937.68
2017-05-11T16:19:15.372Z,937.68
2017-05-11T16:20:16.002Z,937.66
2017-05-11T16:21:13.691Z,937.65
2017-05-11T16:22:15.096Z,937.65
2017-05-11T16:23:15.507Z,937.64
2017-05-11T16:24:15.603Z,937.67
2017-05-11T16:25:12.747Z,937.59
2017-05-11T16:26:16.388Z,937.66
2017-05-11T16:27:13.145Z,937.62
2017-05-11T16:28:16.458Z,937.63
2017-05-11T16:29:15.599Z,937.62
2017-05-11T16:30:15.856Z,937.61
2017-05-11T16:31:14.839Z,937.62
2017-05-11T16:32:15.059Z,937.62
2017-05-11T16:33:15.260Z,937.64
2017-05-11T16:34:15.209Z,937.64
2017-05-11T16:35:16.853Z,937.64
2017-05-11T16:36:14.951Z,937.65
2017-05-11T16:37:11.596Z,937.66
2017-05-11T16:38:15.776Z,937.68
2017-05-11T16:39:14.943Z,937.66
2017-05-11T16:40:15.059Z,937.68
2017-05-11T16:41:15.673Z,937.70
2017-05-11T16:42:14.631Z,937.72
2017-05-11T16:43:16.017Z,937.76
2017-05-11T16:44:11.392Z,937.75
2017-05-11T16:45:14.963Z,937.69
2017-05-11T16:46:15.009Z,937.60
2017-05-11T16:47:15.709Z,937.55
2017-05-11T16:48:15.325Z,937.55
2017-05-11T16:49:15.926Z,937.46
2017-05-11T16:50:15.734Z,937.40
2017-05-11T16:51:15.724Z,937.31
2017-05-11T16:52:14.968Z,937.27
2017-05-11T16:53:15.544Z,937.27
2017-05-11T16:54:15.571Z,937.24
2017-05-11T16:55:15.729Z,937.29
2017-05-11T16:56:15.008Z,937.34
2017-05-11T16:57:15.212Z,937.39
2017-05-11T16:58:12.614Z,937.44
2017-05-11T16:59:15.079Z,937.43
2017-05-11T17:00:15.218Z,937.49
2017-05-11T17:01:15.377Z,937.56
2017-05-11T17:02:15.218Z,937.52
2017-05-11T17:03:15.194Z,937.54
2017-05-11T17:04:15.257Z,937.54
2017-05-11T17:05:15.853Z,937.55
2017-05-11T17:06:16.652Z,937.57
2017-05-11T17:07:14.785Z,937.54
2017-05-11T17:08:12.282Z,937.52